Alamogordo/Holloman AFB, New Mexico
Current Conditions -  °F | °C
As of 12:58 AM on Friday 21 Nov 2014 (Local Time) from KHMN Reporting Station
Clear Clear  
Wind Chill: 29°   Ceiling: Unl
Heat Index: 33°   Visibility: 10mi
Dew Point: 12°   Wind: 5mph
Humidity: 43%   Direction: 20°NNE
Pressure: 30.02"   Gusts: NA
Location:  32.85°N, 106.1°W
Report Text: KHMN 210758Z AUTO 02004KT 10SM CLR 01/M11 A3002 RMK AO2 SLP141 T00051109 $
Loading
Personal Weather Stations






























Interactive Weather Map New forecast layout! Learn more

10-Day Weather Forecast

Advertisements
Track Severe Weather on mobile